Time;durP1;ratioP1;P1;durP2;ratioP2;P2;SDS_P1;SDS_P2;PMS_P1;PMS_P2;Temp;Humidity;BMP_temperature;BMP_pressure;BME280_temperature;BME280_humidity;BME280_pressure;Samples;Min_cycle;Max_cycle;Signal;HPM_P1;HPM_P2
2022/04/14 00:03:00;;;;;;;24.33;14.30;;;5.70;99.90;;;;;;8280957;28;20314;-68
2022/04/14 00:07:02;;;;;;;21.30;12.20;;;5.60;1.00;;;;;;8287556;28;20306;-69
2022/04/14 00:11:03;;;;;;;20.53;13.43;;;5.50;1.00;;;;;;8281441;28;20207;-69
2022/04/14 00:15:05;;;;;;;17.17;12.23;;;5.40;99.90;;;;;;8284428;28;20207;-68
2022/04/14 00:19:07;;;;;;;22.33;13.50;;;5.30;99.90;;;;;;8282852;28;20198;-70
2022/04/14 00:23:08;;;;;;;21.80;13.33;;;5.30;99.90;;;;;;8284585;28;20270;-68
2022/04/14 00:27:09;;;;;;;22.90;13.67;;;5.30;1.00;;;;;;8279382;28;20236;-69
2022/04/14 00:31:10;;;;;;;24.57;14.93;;;5.20;36.40;;;;;;8281502;28;20576;-69
2022/04/14 00:35:11;;;;;;;24.77;16.43;;;5.10;99.90;;;;;;8280431;28;20215;-69
2022/04/14 00:39:11;;;;;;;23.10;15.63;;;5.10;99.90;;;;;;8281141;28;20232;-69
2022/04/14 00:43:12;;;;;;;25.50;14.97;;;5.10;99.90;;;;;;8280365;28;20229;-68
2022/04/14 00:47:14;;;;;;;25.63;16.00;;;5.00;99.90;;;;;;8282823;28;20316;-69
2022/04/14 00:51:15;;;;;;;23.17;15.17;;;5.00;99.90;;;;;;8283476;28;20216;-69
2022/04/14 00:55:16;;;;;;;28.33;17.80;;;5.00;1.00;;;;;;8283120;28;20395;-69
2022/04/14 00:59:17;;;;;;;29.13;17.17;;;5.00;1.00;;;;;;8278406;28;20214;-67
2022/04/14 01:03:18;;;;;;;23.80;16.60;;;4.90;1.00;;;;;;8281309;28;20227;-69
2022/04/14 01:07:19;;;;;;;26.30;17.93;;;4.90;1.00;;;;;;8283601;28;20229;-69
2022/04/14 01:11:20;;;;;;;27.63;17.23;;;4.90;1.00;;;;;;8279645;28;20253;-69
2022/04/14 01:15:21;;;;;;;26.37;16.97;;;4.90;32.40;;;;;;8282594;28;20307;-70
2022/04/14 01:19:22;;;;;;;24.73;16.60;;;4.90;99.90;;;;;;8278861;28;20208;-69
2022/04/14 01:23:42;;;;;;;28.23;17.47;;;4.90;99.90;;;;;;8278099;28;20224;-68
2022/04/14 01:27:43;;;;;;;26.90;17.30;;;4.80;90.70;;;;;;8277042;28;20258;-71
2022/04/14 01:31:44;;;;;;;24.17;15.77;;;4.80;96.20;;;;;;8283578;28;20254;-69
2022/04/14 01:35:44;;;;;;;22.70;14.67;;;4.80;94.80;;;;;;8283220;28;20333;-69
2022/04/14 01:39:45;;;;;;;26.00;15.40;;;4.70;99.90;;;;;;8275324;28;20223;-69
2022/04/14 01:43:46;;;;;;;24.70;15.57;;;4.70;99.90;;;;;;8282498;28;20215;-69
2022/04/14 01:47:47;;;;;;;24.67;15.43;;;4.70;99.90;;;;;;8276644;28;20220;-69
2022/04/14 01:51:48;;;;;;;21.70;15.37;;;4.70;99.90;;;;;;8275674;28;21133;-68
2022/04/14 01:55:49;;;;;;;20.97;14.20;;;4.60;99.90;;;;;;8276012;28;20485;-69
2022/04/14 01:59:50;;;;;;;23.73;14.40;;;4.60;99.90;;;;;;8276358;28;20211;-70
2022/04/14 02:03:51;;;;;;;24.10;15.23;;;4.60;99.90;;;;;;8285924;28;20211;-70
2022/04/14 02:07:52;;;;;;;23.20;14.80;;;4.60;99.90;;;;;;8275951;28;20223;-70
2022/04/14 02:11:53;;;;;;;24.30;15.03;;;4.60;99.90;;;;;;8275038;28;20345;-67
2022/04/14 02:15:53;;;;;;;24.57;15.50;;;4.60;99.90;;;;;;8278227;28;20215;-67
2022/04/14 02:19:54;;;;;;;21.07;14.87;;;4.60;99.90;;;;;;8282457;28;20286;-69
2022/04/14 02:23:55;;;;;;;24.53;15.70;;;4.60;99.90;;;;;;8276815;28;20213;-69
2022/04/14 02:27:55;;;;;;;29.10;18.50;;;4.60;99.90;;;;;;8281586;28;20230;-69
2022/04/14 02:31:57;;;;;;;24.80;16.60;;;4.60;99.90;;;;;;8270831;28;20218;-68
2022/04/14 02:35:58;;;;;;;23.93;16.50;;;4.60;99.90;;;;;;8279703;28;20243;-69
2022/04/14 02:39:59;;;;;;;26.17;17.00;;;4.60;99.90;;;;;;8277964;28;20487;-71
2022/04/14 02:44:00;;;;;;;28.13;18.10;;;4.60;99.90;;;;;;8275734;28;20242;-68
2022/04/14 02:48:00;;;;;;;28.27;17.43;;;4.60;99.90;;;;;;8280107;28;20278;-69
2022/04/14 02:52:01;;;;;;;25.87;18.10;;;4.60;99.90;;;;;;8286125;28;20617;-69
2022/04/14 02:56:04;;;;;;;31.17;19.00;;;4.60;99.90;;;;;;8280031;28;20219;-69
2022/04/14 03:00:09;;;;;;;30.00;20.47;;;4.60;99.90;;;;;;8286934;28;20661;-69
2022/04/14 03:04:10;;;;;;;29.90;18.00;;;4.60;99.90;;;;;;8285477;28;20223;-70
2022/04/14 03:08:10;;;;;;;27.07;17.17;;;4.60;99.90;;;;;;8283915;28;20681;-68
2022/04/14 03:12:12;;;;;;;27.20;17.80;;;4.50;99.90;;;;;;8283042;28;20227;-67
2022/04/14 03:16:13;;;;;;;23.07;15.50;;;4.30;99.90;;;;;;8283841;28;20233;-70
2022/04/14 03:20:14;;;;;;;26.40;16.23;;;4.20;99.90;;;;;;8284268;28;20373;-69
2022/04/14 03:24:14;;;;;;;24.03;15.53;;;4.10;99.90;;;;;;8284075;28;20205;-69
2022/04/14 03:28:15;;;;;;;21.93;14.67;;;4.00;99.90;;;;;;8284129;28;20213;-69
2022/04/14 03:32:16;;;;;;;24.23;16.03;;;3.90;99.90;;;;;;8285785;28;20206;-72
2022/04/14 03:36:17;;;;;;;26.63;17.37;;;3.80;99.90;;;;;;8283620;28;20205;-70
2022/04/14 03:40:18;;;;;;;22.80;16.17;;;3.80;99.90;;;;;;8285472;28;20564;-69
2022/04/14 03:44:19;;;;;;;25.50;16.27;;;3.70;99.90;;;;;;8284003;28;20202;-69
2022/04/14 03:48:19;;;;;;;24.87;15.97;;;3.60;99.90;;;;;;8280589;28;20214;-69
2022/04/14 03:52:20;;;;;;;30.17;17.17;;;3.50;99.90;;;;;;8282094;28;20621;-70
2022/04/14 03:56:21;;;;;;;22.77;15.50;;;3.50;99.90;;;;;;8283355;28;20237;-67
2022/04/14 04:00:22;;;;;;;25.27;16.70;;;3.40;99.90;;;;;;8284466;28;20219;-69
2022/04/14 04:04:23;;;;;;;25.10;15.47;;;3.30;99.90;;;;;;8283077;28;20218;-69
2022/04/14 04:08:23;;;;;;;22.00;15.63;;;3.30;99.90;;;;;;8280594;28;20203;-69
2022/04/14 04:12:24;;;;;;;23.20;14.03;;;3.20;99.90;;;;;;8278705;28;20310;-68
2022/04/14 04:16:25;;;;;;;26.00;16.03;;;3.10;99.90;;;;;;8274821;28;20215;-70
2022/04/14 04:20:25;;;;;;;21.73;14.30;;;3.10;99.90;;;;;;8284975;28;20202;-69
2022/04/14 04:24:26;;;;;;;23.03;15.10;;;3.10;99.90;;;;;;8286029;28;20199;-67
2022/04/14 04:28:30;;;;;;;23.17;15.33;;;3.10;99.90;;;;;;8282195;28;20297;-67
2022/04/14 04:32:33;;;;;;;19.83;13.50;;;3.20;99.90;;;;;;8279520;28;20211;-70
2022/04/14 04:36:34;;;;;;;20.47;14.47;;;3.30;99.90;;;;;;8288555;28;20249;-69
2022/04/14 04:40:35;;;;;;;21.93;14.37;;;3.40;99.90;;;;;;8281858;28;20211;-68
2022/04/14 04:44:35;;;;;;;18.63;13.60;;;3.50;99.90;;;;;;8281700;28;20207;-69
2022/04/14 04:48:37;;;;;;;19.73;13.13;;;3.70;99.90;;;;;;8281477;28;20262;-70
2022/04/14 04:52:37;;;;;;;21.73;13.10;;;3.80;99.90;;;;;;8280784;28;20237;-69
2022/04/14 04:56:38;;;;;;;21.30;14.53;;;4.00;99.90;;;;;;8277928;28;20238;-70
2022/04/14 05:00:40;;;;;;;23.10;13.40;;;4.20;99.90;;;;;;8277817;28;20579;-69
2022/04/14 05:04:41;;;;;;;19.10;13.10;;;4.30;99.90;;;;;;8280682;28;20210;-70
2022/04/14 05:08:42;;;;;;;22.77;14.10;;;4.60;99.90;;;;;;8297191;28;20242;-69
2022/04/14 05:12:43;;;;;;;22.47;13.47;;;4.80;99.90;;;;;;8278550;28;20340;-69
2022/04/14 05:16:44;;;;;;;25.13;15.30;;;5.10;99.90;;;;;;8279401;28;20298;-67
2022/04/14 05:20:45;;;;;;;22.43;15.53;;;5.40;99.90;;;;;;8283784;28;20221;-68
2022/04/14 05:24:46;;;;;;;46.20;29.33;;;5.80;1.00;;;;;;8283113;28;20210;-68
2022/04/14 05:28:46;;;;;;;93.50;48.43;;;6.10;99.90;;;;;;8277269;28;20216;-70
2022/04/14 05:32:47;;;;;;;46.13;28.83;;;6.50;99.90;;;;;;8277449;28;20193;-68
2022/04/14 05:36:48;;;;;;;33.10;20.23;;;6.90;99.90;;;;;;8280071;28;20245;-67
2022/04/14 05:40:49;;;;;;;28.73;19.03;;;7.20;1.00;;;;;;8281860;28;20211;-68
2022/04/14 05:44:49;;;;;;;22.80;17.37;;;7.60;99.00;;;;;;8279852;28;20334;-68
2022/04/14 05:48:51;;;;;;;21.50;14.63;;;8.00;1.00;;;;;;8278791;28;20294;-68
2022/04/14 05:52:52;;;;;;;27.23;18.77;;;8.40;99.90;;;;;;8280869;28;20222;-68
2022/04/14 05:56:52;;;;;;;29.77;20.47;;;8.80;99.90;;;;;;8280936;28;20593;-68
2022/04/14 06:00:54;;;;;;;25.23;18.37;;;9.20;1.00;;;;;;8278548;28;20261;-68
2022/04/14 06:04:54;;;;;;;22.53;16.90;;;9.40;99.90;;;;;;8277293;28;20206;-68
2022/04/14 06:08:55;;;;;;;22.40;15.87;;;9.60;99.90;;;;;;8278548;28;20234;-68
2022/04/14 06:12:56;;;;;;;21.93;15.43;;;9.80;40.20;;;;;;8292747;28;20210;-68
2022/04/14 06:16:57;;;;;;;24.97;17.80;;;10.00;1.00;;;;;;8275653;28;20229;-68
2022/04/14 06:20:58;;;;;;;21.63;17.80;;;10.10;1.00;;;;;;8286712;28;20217;-70
2022/04/14 06:24:59;;;;;;;24.57;18.13;;;10.30;99.90;;;;;;8286378;28;20210;-68
2022/04/14 06:28:59;;;;;;;27.33;19.03;;;10.40;99.90;;;;;;8278482;28;20207;-69
2022/04/14 06:33:04;;;;;;;37.43;24.77;;;10.60;99.90;;;;;;8284065;28;20215;-69
2022/04/14 06:37:05;;;;;;;19.67;13.33;;;10.80;99.90;;;;;;8284191;28;20338;-67
2022/04/14 06:41:06;;;;;;;17.03;11.57;;;11.20;99.90;;;;;;8285228;28;20225;-68
2022/04/14 06:45:07;;;;;;;15.33;10.23;;;11.60;1.00;;;;;;8284593;28;20204;-68
2022/04/14 06:49:08;;;;;;;13.30;9.80;;;11.90;99.90;;;;;;8281336;28;20264;-68
2022/04/14 06:53:09;;;;;;;14.87;9.43;;;12.20;99.90;;;;;;8285234;28;20211;-68
2022/04/14 06:57:09;;;;;;;15.20;9.80;;;12.50;99.90;;;;;;8278146;28;20224;-69
2022/04/14 07:01:10;;;;;;;19.80;12.77;;;12.70;97.00;;;;;;8285427;28;20238;-67
2022/04/14 07:05:11;;;;;;;13.00;9.67;;;12.90;57.50;;;;;;8282866;28;20215;-69
2022/04/14 07:09:12;;;;;;;26.53;17.17;;;13.20;1.00;;;;;;8279443;28;20268;-68
2022/04/14 07:13:13;;;;;;;25.93;16.93;;;13.40;1.00;;;;;;8286486;28;20215;-69
2022/04/14 07:17:16;;;;;;;16.23;10.90;;;13.70;1.00;;;;;;8282160;28;20230;-70
2022/04/14 07:21:17;;;;;;;13.63;8.53;;;14.00;99.90;;;;;;8285940;28;20214;-70
2022/04/14 07:25:18;;;;;;;10.57;5.63;;;14.30;99.90;;;;;;8286022;28;20218;-68
2022/04/14 07:29:18;;;;;;;7.30;5.00;;;14.60;6.30;;;;;;8279327;28;20219;-67
2022/04/14 07:33:19;;;;;;;6.60;4.17;;;15.00;1.00;;;;;;8281548;28;20211;-68
2022/04/14 07:37:20;;;;;;;6.37;4.07;;;15.40;99.90;;;;;;8281494;28;20329;-70
2022/04/14 07:41:21;;;;;;;5.07;3.77;;;15.80;99.90;;;;;;8290093;28;20233;-69
2022/04/14 07:45:22;;;;;;;5.17;3.83;;;16.20;99.90;;;;;;8283601;28;20207;-66
2022/04/14 07:49:23;;;;;;;6.63;4.17;;;16.50;99.90;;;;;;8285395;28;20262;-68
2022/04/14 07:53:23;;;;;;;5.87;3.10;;;16.80;99.90;;;;;;8279855;28;20214;-67
2022/04/14 07:57:25;;;;;;;4.50;3.27;;;17.10;99.90;;;;;;8280950;28;20238;-67
2022/04/14 08:01:28;;;;;;;4.40;3.30;;;17.30;99.90;;;;;;8283133;28;20206;-67
2022/04/14 08:05:38;;;;;;;5.87;3.03;;;17.60;99.90;;;;;;8288788;28;20286;-68
2022/04/14 08:09:39;;;;;;;5.47;3.57;;;17.80;99.90;;;;;;8280103;28;20211;-69
2022/04/14 08:13:41;;;;;;;6.10;3.60;;;18.00;99.90;;;;;;8292157;28;20215;-67
2022/04/14 08:17:43;;;;;;;6.27;3.50;;;18.20;99.90;;;;;;8279486;28;20304;-69
2022/04/14 08:21:46;;;;;;;6.77;3.20;;;18.40;99.90;;;;;;8281366;28;20211;-68
2022/04/14 08:25:46;;;;;;;7.00;3.40;;;18.60;99.90;;;;;;8302719;28;20253;-69
2022/04/14 08:29:47;;;;;;;6.97;3.37;;;18.70;99.90;;;;;;8296362;28;20210;-68
2022/04/14 08:33:49;;;;;;;4.30;3.20;;;18.90;99.90;;;;;;8281820;28;20301;-69
2022/04/14 08:37:50;;;;;;;4.70;3.40;;;19.00;99.90;;;;;;8295610;28;20222;-66
2022/04/14 08:42:00;;;;;;;5.83;3.20;;;19.20;99.90;;;;;;8280113;28;20298;-68
2022/04/14 08:46:03;;;;;;;4.57;3.37;;;19.60;98.80;;;;;;8281465;28;20332;-68
2022/04/14 08:50:06;;;;;;;5.57;3.07;;;19.80;90.90;;;;;;8277786;28;20239;-65
2022/04/14 08:54:09;;;;;;;4.87;2.70;;;20.00;71.60;;;;;;8284149;28;20268;-67
2022/04/14 08:58:15;;;;;;;5.60;2.60;;;20.20;56.30;;;;;;8280213;28;20230;-67
2022/04/14 09:02:19;;;;;;;3.93;2.90;;;20.40;28.90;;;;;;8276350;28;20210;-68
2022/04/14 09:06:21;;;;;;;6.40;3.47;;;20.60;11.40;;;;;;8279543;28;20266;-68
2022/04/14 09:10:22;;;;;;;5.77;2.87;;;20.80;1.60;;;;;;8280244;28;20218;-68
2022/04/14 09:14:23;;;;;;;4.17;2.80;;;21.00;6.70;;;;;;8278903;28;20199;-67
2022/04/14 09:18:24;;;;;;;4.10;2.67;;;21.20;7.10;;;;;;8279161;28;20219;-68
2022/04/14 09:22:24;;;;;;;2.73;2.33;;;21.40;1.00;;;;;;8280455;28;20278;-68
2022/04/14 09:26:25;;;;;;;4.87;2.63;;;21.70;1.00;;;;;;8281109;28;20210;-68
2022/04/14 09:30:26;;;;;;;3.70;2.30;;;21.90;1.00;;;;;;8281092;28;20238;-68
2022/04/14 09:34:51;;;;;;;5.03;2.33;;;22.30;1.00;;;;;;8278292;28;20207;-67
2022/04/14 09:39:07;;;;;;;2.87;2.27;;;22.60;1.00;;;;;;8278247;28;20215;-64
2022/04/14 09:43:08;;;;;;;5.10;3.20;;;23.00;1.00;;;;;;8273954;28;20203;-67
2022/04/14 09:47:09;;;;;;;4.30;2.97;;;23.30;1.00;;;;;;8274288;28;20264;-64
2022/04/14 09:51:25;;;;;;;5.53;3.80;;;23.50;1.00;;;;;;8280779;28;20214;-68
2022/04/14 09:55:26;;;;;;;5.90;3.80;;;23.70;1.00;;;;;;8281144;28;20270;-64
2022/04/14 09:59:28;;;;;;;9.27;4.07;;;24.00;1.00;;;;;;8278739;28;20272;-69
2022/04/14 10:03:31;;;;;;;8.77;4.07;;;24.20;1.00;;;;;;8283272;28;20206;-68
2022/04/14 10:07:32;;;;;;;6.03;3.80;;;24.50;1.00;;;;;;8285106;28;20281;-68
2022/04/14 10:11:37;;;;;;;12.07;4.20;;;24.60;1.00;;;;;;8284022;28;20215;-69
2022/04/14 10:15:40;;;;;;;5.83;3.57;;;24.40;1.00;;;;;;8279592;28;20225;-69
2022/04/14 10:19:42;;;;;;;5.70;3.03;;;24.20;1.00;;;;;;8277352;28;20210;-65
2022/04/14 10:23:44;;;;;;;7.60;3.47;;;24.30;1.00;;;;;;8283662;28;21090;-66
2022/04/14 10:27:46;;;;;;;7.13;3.50;;;24.50;1.00;;;;;;8278335;28;20290;-66
2022/04/14 10:31:53;;;;;;;6.40;3.50;;;24.80;1.00;;;;;;8282659;28;20272;-67
2022/04/14 10:35:54;;;;;;;8.15;3.58;;;25.00;1.00;;;;;;8277554;28;20210;-67
2022/04/14 10:39:56;;;;;;;5.18;3.55;;;25.10;1.00;;;;;;8278270;28;20215;-65
2022/04/14 10:44:00;;;;;;;6.00;3.17;;;25.40;1.00;;;;;;8285490;28;20260;-68
2022/04/14 10:48:01;;;;;;;5.63;3.42;;;25.50;1.00;;;;;;8273127;28;20228;-68
2022/04/14 10:52:31;;;;;;;4.60;3.45;;;25.70;1.00;;;;;;8276519;28;20230;-65
2022/04/14 10:56:41;;;;;;;3.53;2.25;;;26.00;1.00;;;;;;8264078;28;20281;-69
2022/04/14 11:00:42;;;;;;;5.05;2.92;;;26.10;1.00;;;;;;8295134;28;20222;-67
2022/04/14 11:04:43;;;;;;;4.38;2.60;;;26.20;1.00;;;;;;8283968;28;20207;-68
2022/04/14 11:08:47;;;;;;;5.40;3.03;;;26.30;1.00;;;;;;8291382;28;20223;-66
2022/04/14 11:12:57;;;;;;;4.68;3.03;;;26.30;1.00;;;;;;8289354;28;20213;-69
2022/04/14 11:16:57;;;;;;;3.70;2.58;;;26.20;1.00;;;;;;8283467;28;20207;-66
2022/04/14 11:20:58;;;;;;;5.13;2.35;;;26.20;1.00;;;;;;8286743;28;20206;-70
2022/04/14 11:25:08;;;;;;;4.60;2.95;;;26.30;1.00;;;;;;8282802;28;20290;-70
2022/04/14 11:29:09;;;;;;;7.20;2.70;;;26.00;1.00;;;;;;8282922;28;20230;-65
2022/04/14 11:33:28;;;;;;;4.57;2.47;;;26.00;1.00;;;;;;8280448;28;20214;-67
2022/04/14 11:37:49;;;;;;;5.85;2.80;;;26.10;1.00;;;;;;8284647;28;20210;-67
2022/04/14 11:41:50;;;;;;;5.85;2.88;;;25.10;1.00;;;;;;8282213;28;20230;-69
2022/04/14 11:45:51;;;;;;;5.55;3.45;;;24.30;1.00;;;;;;8283521;28;20238;-67
2022/04/14 11:49:52;;;;;;;5.67;3.07;;;24.70;1.00;;;;;;8280168;28;20231;-68
2022/04/14 11:53:55;;;;;;;4.77;2.60;;;24.40;1.00;;;;;;8283481;28;20222;-68
2022/04/14 11:57:56;;;;;;;4.83;2.90;;;24.30;1.00;;;;;;8277561;28;20257;-67
2022/04/14 12:02:09;;;;;;;5.00;3.33;;;23.50;1.00;;;;;;8296051;28;20203;-68
2022/04/14 12:06:18;;;;;;;4.60;2.80;;;23.10;1.00;;;;;;8284828;28;20210;-68
2022/04/14 12:10:19;;;;;;;5.70;3.13;;;22.80;1.00;;;;;;8284629;28;20227;-68
2022/04/14 12:14:21;;;;;;;5.27;2.60;;;23.00;1.00;;;;;;8284223;28;20207;-69
2022/04/14 12:18:22;;;;;;;4.90;3.10;;;23.00;1.00;;;;;;8281110;28;20253;-68
2022/04/14 12:22:24;;;;;;;4.70;2.90;;;23.50;1.00;;;;;;8281737;28;20234;-69
2022/04/14 12:26:30;;;;;;;5.07;3.50;;;24.30;1.00;;;;;;8284318;28;20273;-68
2022/04/14 12:30:31;;;;;;;5.27;2.80;;;25.00;1.00;;;;;;8284281;28;20226;-68
2022/04/14 12:34:40;;;;;;;4.43;2.70;;;24.80;1.00;;;;;;8282795;28;20591;-68
2022/04/14 12:38:47;;;;;;;4.03;2.73;;;23.90;1.00;;;;;;8280341;28;20247;-68
2022/04/14 12:42:49;;;;;;;4.70;2.33;;;23.50;1.00;;;;;;8281507;28;20233;-68
2022/04/14 12:46:51;;;;;;;3.73;2.40;;;23.40;1.00;;;;;;8279179;28;20207;-69
2022/04/14 12:50:57;;;;;;;5.57;2.83;;;22.90;1.00;;;;;;8278873;28;20301;-69
2022/04/14 12:54:58;;;;;;;4.53;2.60;;;23.30;1.00;;;;;;8285953;28;20207;-69
2022/04/14 12:59:14;;;;;;;5.33;2.10;;;24.10;1.00;;;;;;8279090;28;20238;-65
2022/04/14 13:03:16;;;;;;;5.00;2.93;;;24.00;1.00;;;;;;8298532;28;20212;-66
2022/04/14 13:07:17;;;;;;;7.30;2.63;;;23.80;1.00;;;;;;8287693;28;20321;-68
2022/04/14 13:11:39;;;;;;;4.43;2.77;;;22.90;1.00;;;;;;8284023;28;20305;-68
2022/04/14 13:15:40;;;;;;;6.10;2.67;;;22.90;1.00;;;;;;8286460;28;20210;-70
2022/04/14 13:19:41;;;;;;;4.20;2.93;;;23.30;1.00;;;;;;8280695;28;20222;-69
2022/04/14 13:23:42;;;;;;;4.83;2.57;;;23.60;1.00;;;;;;8305127;28;20217;-68
2022/04/14 13:27:43;;;;;;;4.20;2.50;;;23.40;1.00;;;;;;8283573;28;20250;-68
2022/04/14 13:31:44;;;;;;;7.37;2.70;;;22.70;1.00;;;;;;8286288;28;20210;-69
2022/04/14 13:35:44;;;;;;;3.67;2.77;;;23.00;1.00;;;;;;8291259;28;20215;-68
2022/04/14 13:39:45;;;;;;;4.00;2.67;;;23.40;1.00;;;;;;8298547;28;20242;-70
2022/04/14 13:43:46;;;;;;;2.83;2.43;;;23.70;1.00;;;;;;8287430;28;20214;-70
2022/04/14 13:47:47;;;;;;;3.57;2.40;;;23.90;1.00;;;;;;8282554;28;20237;-69
2022/04/14 13:51:48;;;;;;;2.63;1.77;;;24.30;1.00;;;;;;8288540;28;20222;-68
2022/04/14 13:55:49;;;;;;;3.43;2.47;;;24.60;1.00;;;;;;8274953;28;20332;-69
2022/04/14 13:59:50;;;;;;;4.20;2.83;;;23.60;1.00;;;;;;8300022;28;20610;-68
2022/04/14 14:03:52;;;;;;;3.63;2.83;;;22.90;1.00;;;;;;8284971;28;20278;-66
2022/04/14 14:07:53;;;;;;;6.53;3.40;;;22.70;1.00;;;;;;8283689;28;20224;-70
2022/04/14 14:11:54;;;;;;;7.07;3.73;;;22.50;1.00;;;;;;8288454;28;20325;-66
2022/04/14 14:15:55;;;;;;;10.20;5.27;;;22.30;1.00;;;;;;8284877;28;20206;-70
2022/04/14 14:19:56;;;;;;;8.63;5.57;;;22.10;1.00;;;;;;8282269;28;20202;-69
2022/04/14 14:23:58;;;;;;;11.83;6.30;;;21.50;1.00;;;;;;8283161;28;20207;-66
2022/04/14 14:27:59;;;;;;;11.33;6.87;;;21.20;24.50;;;;;;8282615;28;20238;-69
2022/04/14 14:32:00;;;;;;;13.10;6.87;;;20.90;31.60;;;;;;8275328;28;20417;-67
2022/04/14 14:36:02;;;;;;;17.50;8.27;;;20.60;27.50;;;;;;8282877;28;20206;-71
2022/04/14 14:40:03;;;;;;;14.77;7.80;;;20.30;44.00;;;;;;8281013;28;20215;-69
2022/04/14 14:44:04;;;;;;;14.37;7.93;;;20.00;40.90;;;;;;8279832;28;20213;-69
2022/04/14 14:48:06;;;;;;;9.07;6.37;;;20.00;40.70;;;;;;8284475;28;20215;-68
2022/04/14 14:52:07;;;;;;;10.57;6.47;;;19.90;43.80;;;;;;8289771;28;20215;-65
2022/04/14 14:56:08;;;;;;;10.03;6.47;;;19.80;51.30;;;;;;8286357;28;20226;-68
2022/04/14 15:00:09;;;;;;;15.07;6.50;;;19.80;62.70;;;;;;8288533;28;20211;-67
2022/04/14 15:04:13;;;;;;;10.47;6.17;;;19.80;83.80;;;;;;8285333;28;20207;-67
2022/04/14 15:08:14;;;;;;;12.57;5.97;;;19.70;73.80;;;;;;8283706;28;20565;-66
2022/04/14 15:12:15;;;;;;;10.73;6.20;;;19.70;82.60;;;;;;8282436;28;20215;-69
2022/04/14 15:16:16;;;;;;;8.10;5.30;;;19.60;90.90;;;;;;8279456;28;20214;-68
2022/04/14 15:20:17;;;;;;;7.53;5.27;;;19.60;99.90;;;;;;8291453;28;20211;-68
2022/04/14 15:24:18;;;;;;;6.57;4.93;;;19.60;81.50;;;;;;8287002;28;20284;-69
2022/04/14 15:28:19;;;;;;;8.50;5.50;;;19.60;95.70;;;;;;8291491;28;20225;-67
2022/04/14 15:32:19;;;;;;;8.97;5.03;;;19.70;98.80;;;;;;8287541;28;20308;-68
2022/04/14 15:36:20;;;;;;;14.10;5.83;;;19.70;95.20;;;;;;8289453;28;20234;-68
2022/04/14 15:40:23;;;;;;;6.50;5.07;;;19.60;93.30;;;;;;8290741;28;20225;-68
2022/04/14 15:44:24;;;;;;;6.93;5.30;;;19.70;99.60;;;;;;8294275;28;20209;-70
2022/04/14 15:48:25;;;;;;;7.67;5.90;;;19.70;96.70;;;;;;8281043;28;20227;-69
2022/04/14 15:52:26;;;;;;;10.87;5.93;;;19.60;88.90;;;;;;8287612;28;20222;-70
2022/04/14 15:56:27;;;;;;;8.63;6.53;;;19.60;93.70;;;;;;8285110;28;20214;-66
2022/04/14 16:00:28;;;;;;;8.73;6.60;;;19.40;89.60;;;;;;8297964;28;20219;-70
2022/04/14 16:04:29;;;;;;;9.87;5.87;;;19.40;89.80;;;;;;8288577;28;20214;-68
2022/04/14 16:08:30;;;;;;;8.73;6.60;;;19.40;97.80;;;;;;8280138;28;20229;-67
2022/04/14 16:12:31;;;;;;;9.77;7.20;;;19.40;90.20;;;;;;8283211;28;20282;-68
2022/04/14 16:16:32;;;;;;;9.63;6.63;;;19.30;98.30;;;;;;8282510;28;20206;-68
2022/04/14 16:20:33;;;;;;;8.77;6.27;;;19.30;99.90;;;;;;8293396;28;20211;-69
2022/04/14 16:24:34;;;;;;;9.83;6.37;;;19.40;99.90;;;;;;8294325;28;20207;-64
2022/04/14 16:28:35;;;;;;;9.33;6.27;;;19.50;95.80;;;;;;8295554;28;20229;-69
2022/04/14 16:32:36;;;;;;;9.40;6.13;;;19.40;99.90;;;;;;8285691;28;20203;-66
2022/04/14 16:36:37;;;;;;;9.60;6.27;;;19.20;99.90;;;;;;8280108;28;20280;-66
2022/04/14 16:40:38;;;;;;;9.93;5.83;;;19.00;99.90;;;;;;8286355;28;20218;-68
2022/04/14 16:44:39;;;;;;;9.13;5.93;;;18.80;99.90;;;;;;8280185;28;20207;-69
2022/04/14 16:48:42;;;;;;;8.67;5.90;;;18.70;99.90;;;;;;8284085;28;20533;-70
2022/04/14 16:52:44;;;;;;;9.87;7.47;;;18.50;99.90;;;;;;8285060;28;20662;-68
2022/04/14 16:56:45;;;;;;;10.40;8.10;;;18.40;99.90;;;;;;8279019;28;20207;-69
2022/04/14 17:00:46;;;;;;;15.03;7.73;;;18.30;99.90;;;;;;8274307;28;20211;-68
2022/04/14 17:04:47;;;;;;;9.63;7.80;;;18.10;99.90;;;;;;8279388;28;20363;-69
2022/04/14 17:08:47;;;;;;;13.87;9.17;;;17.90;99.90;;;;;;8285382;28;20226;-68
2022/04/14 17:12:48;;;;;;;10.57;7.60;;;17.80;99.90;;;;;;8280808;28;20304;-69
2022/04/14 17:16:49;;;;;;;15.13;9.23;;;17.70;99.90;;;;;;8279811;28;20210;-70
2022/04/14 17:20:50;;;;;;;12.03;7.17;;;17.60;99.90;;;;;;8282413;28;20210;-71
2022/04/14 17:24:51;;;;;;;9.20;7.33;;;17.50;99.90;;;;;;8280311;28;20206;-68
2022/04/14 17:28:52;;;;;;;9.07;7.60;;;17.40;99.90;;;;;;8275418;28;20219;-70
2022/04/14 17:32:53;;;;;;;10.27;7.37;;;17.30;99.90;;;;;;8300417;28;20207;-70
2022/04/14 17:36:53;;;;;;;11.63;7.50;;;17.20;99.90;;;;;;8283648;28;20224;-71
2022/04/14 17:40:54;;;;;;;10.40;7.63;;;17.10;99.90;;;;;;8297771;28;20207;-69
2022/04/14 17:44:55;;;;;;;7.37;4.80;;;17.00;99.90;;;;;;8279859;28;20269;-71
2022/04/14 17:48:56;;;;;;;10.10;6.77;;;17.00;1.00;;;;;;8276549;28;20258;-68
2022/04/14 17:52:57;;;;;;;5.13;3.30;;;17.00;1.00;;;;;;8282793;28;20260;-70
2022/04/14 17:56:58;;;;;;;4.43;3.27;;;16.80;13.70;;;;;;8293484;28;20238;-70
2022/04/14 18:01:00;;;;;;;6.43;3.80;;;16.70;94.20;;;;;;8281211;28;20234;-69
2022/04/14 18:05:02;;;;;;;3.47;2.97;;;16.60;99.90;;;;;;8284203;28;20297;-70
2022/04/14 18:09:02;;;;;;;4.47;2.10;;;16.40;99.90;;;;;;8282811;28;20218;-70
2022/04/14 18:13:04;;;;;;;3.33;1.60;;;16.30;99.90;;;;;;8286089;28;20255;-70
2022/04/14 18:17:05;;;;;;;3.07;1.57;;;16.10;99.90;;;;;;8285684;28;20292;-64
2022/04/14 18:21:08;;;;;;;2.17;1.33;;;16.00;99.90;;;;;;8288009;28;20214;-63
2022/04/14 18:25:11;;;;;;;4.37;2.00;;;15.90;99.90;;;;;;8286315;28;20297;-67
2022/04/14 18:29:11;;;;;;;2.23;1.20;;;15.80;99.90;;;;;;8287663;28;20400;-68
2022/04/14 18:33:12;;;;;;;2.13;1.40;;;15.60;99.90;;;;;;8286083;28;20231;-65
2022/04/14 18:37:13;;;;;;;2.90;2.13;;;15.60;99.90;;;;;;8281785;28;20305;-68
2022/04/14 18:41:14;;;;;;;2.80;1.90;;;15.40;99.90;;;;;;8283115;28;20226;-67
2022/04/14 18:45:15;;;;;;;4.23;2.20;;;15.30;99.90;;;;;;8276015;28;20208;-68
2022/04/14 18:49:18;;;;;;;2.93;1.80;;;15.30;1.00;;;;;;8285372;28;20345;-69
2022/04/14 18:53:19;;;;;;;2.93;1.77;;;15.20;1.00;;;;;;8284611;28;20447;-67
2022/04/14 18:57:20;;;;;;;2.93;1.70;;;15.20;1.00;;;;;;8285713;28;20235;-69
2022/04/14 19:01:21;;;;;;;2.90;1.83;;;15.10;1.00;;;;;;8286670;28;20210;-68
2022/04/14 19:05:23;;;;;;;3.13;1.40;;;15.10;1.00;;;;;;8289437;28;20217;-69
2022/04/14 19:09:24;;;;;;;1.47;1.00;;;15.10;1.00;;;;;;8284900;28;20234;-69
2022/04/14 19:13:25;;;;;;;5.60;2.00;;;15.10;1.00;;;;;;8283086;28;20201;-69
2022/04/14 19:17:29;;;;;;;3.17;1.77;;;15.00;1.00;;;;;;8280998;28;20257;-72
2022/04/14 19:21:30;;;;;;;2.77;1.87;;;15.00;1.00;;;;;;8286103;28;20214;-68
2022/04/14 19:25:31;;;;;;;3.50;1.53;;;14.90;1.00;;;;;;8285774;28;20207;-69
2022/04/14 19:29:32;;;;;;;3.07;1.77;;;14.90;1.00;;;;;;8286005;28;20230;-69
2022/04/14 19:33:33;;;;;;;2.73;2.07;;;14.80;1.00;;;;;;8288199;28;20214;-69
2022/04/14 19:37:34;;;;;;;8.10;5.17;;;14.80;1.00;;;;;;8286034;28;20217;-69
2022/04/14 19:41:35;;;;;;;3.57;2.23;;;14.80;13.00;;;;;;8290462;28;20224;-69
2022/04/14 19:45:35;;;;;;;4.90;2.30;;;14.80;75.30;;;;;;8286908;28;20209;-69
2022/04/14 19:49:36;;;;;;;2.40;2.20;;;14.70;99.90;;;;;;8294314;28;20229;-69
2022/04/14 19:53:37;;;;;;;3.87;1.80;;;14.60;99.90;;;;;;8291777;28;20210;-68
2022/04/14 19:57:39;;;;;;;2.10;1.70;;;14.30;1.00;;;;;;8290235;28;20233;-68
2022/04/14 20:01:40;;;;;;;2.27;1.77;;;13.80;81.60;;;;;;8301740;28;20210;-66
2022/04/14 20:05:41;;;;;;;2.83;1.70;;;13.50;99.90;;;;;;8303292;28;20202;-66
2022/04/14 20:09:42;;;;;;;3.23;1.70;;;13.10;1.00;;;;;;8305244;28;20228;-67
2022/04/14 20:13:43;;;;;;;3.70;1.93;;;12.70;1.00;;;;;;8295248;28;20213;-68
2022/04/14 20:17:44;;;;;;;4.57;1.93;;;12.50;99.90;;;;;;8295368;28;20207;-68
2022/04/14 20:21:45;;;;;;;3.20;1.90;;;12.30;99.90;;;;;;8300651;28;20228;-67
2022/04/14 20:25:46;;;;;;;3.57;2.10;;;12.20;99.90;;;;;;8290771;28;20285;-69
2022/04/14 20:29:47;;;;;;;2.83;1.93;;;12.20;99.90;;;;;;8292762;28;20223;-68
2022/04/14 20:33:48;;;;;;;4.40;2.53;;;12.10;99.90;;;;;;8285514;28;20203;-68
2022/04/14 20:37:48;;;;;;;8.27;3.17;;;12.00;99.90;;;;;;8289731;28;20203;-68
2022/04/14 20:41:50;;;;;;;5.37;2.10;;;12.00;99.90;;;;;;8289835;28;20207;-66
2022/04/14 20:45:51;;;;;;;3.67;2.40;;;12.00;99.90;;;;;;8283619;28;20227;-72
2022/04/14 20:49:54;;;;;;;3.80;2.47;;;11.90;99.90;;;;;;8283987;28;20232;-66
2022/04/14 20:53:55;;;;;;;4.70;2.60;;;11.90;99.90;;;;;;8306799;28;20218;-67
2022/04/14 20:57:56;;;;;;;2.83;2.17;;;11.90;99.90;;;;;;8289551;28;20212;-67